createdAt,value
2022-12-13T00:02:00.803Z,-4.43
2022-12-13T00:04:29.219Z,-4.49
2022-12-13T00:06:57.481Z,-4.39
2022-12-13T00:09:25.809Z,-4.48
2022-12-13T00:11:55.424Z,-4.58
2022-12-13T00:14:24.050Z,-4.63
2022-12-13T00:16:52.669Z,-4.79
2022-12-13T00:19:21.566Z,-4.85
2022-12-13T00:21:52.612Z,-4.92
2022-12-13T00:24:20.970Z,-5.12
2022-12-13T00:26:49.214Z,-5.33
2022-12-13T00:29:19.445Z,-5.13
2022-12-13T00:32:03.172Z,-5.23
2022-12-13T00:34:31.702Z,-5.06
2022-12-13T00:37:00.192Z,-4.99
2022-12-13T00:39:29.315Z,-5.01
2022-12-13T00:41:57.955Z,-4.92
2022-12-13T00:44:28.001Z,-5.14
2022-12-13T00:46:56.561Z,-5.12
2022-12-13T00:49:25.541Z,-5.03
2022-12-13T00:51:54.130Z,-4.99
2022-12-13T00:54:22.532Z,-5.01
2022-12-13T00:56:52.255Z,-5.00
2022-12-13T00:59:21.465Z,-5.01
2022-12-13T01:01:51.333Z,-5.10
2022-12-13T01:04:20.200Z,-5.11
2022-12-13T01:06:51.453Z,-5.02
2022-12-13T01:09:23.353Z,-5.03
2022-12-13T01:11:52.028Z,-4.88
2022-12-13T01:14:21.910Z,-4.83
2022-12-13T01:16:55.640Z,-4.95
2022-12-13T01:19:25.403Z,-5.00
2022-12-13T01:21:56.695Z,-5.05
2022-12-13T01:24:26.095Z,-5.02
2022-12-13T01:26:56.930Z,-5.28
2022-12-13T01:29:26.613Z,-5.35
2022-12-13T01:31:57.151Z,-5.38
2022-12-13T01:34:27.610Z,-5.40
2022-12-13T01:36:58.414Z,-5.33
2022-12-13T01:39:28.419Z,-5.40
2022-12-13T01:41:59.853Z,-5.41
2022-12-13T01:45:00.540Z,-5.45
2022-12-13T01:47:37.448Z,-5.43
2022-12-13T01:50:12.361Z,-5.59
2022-12-13T01:52:41.814Z,-5.69
2022-12-13T01:55:12.300Z,-5.74
2022-12-13T01:57:45.815Z,-5.62
2022-12-13T02:00:16.798Z,-5.64
2022-12-13T02:02:50.003Z,-5.53
2022-12-13T02:05:26.694Z,-5.49
2022-12-13T02:07:58.325Z,-5.44
2022-12-13T02:10:27.927Z,-5.50
2022-12-13T02:12:56.637Z,-5.56
2022-12-13T02:15:27.285Z,-5.74
2022-12-13T02:18:25.156Z,-5.64
2022-12-13T02:21:25.461Z,-5.59
2022-12-13T02:24:50.603Z,-5.66
2022-12-13T02:27:42.519Z,-5.66
2022-12-13T02:30:36.627Z,-5.64
2022-12-13T02:33:30.169Z,-5.84
2022-12-13T02:36:14.826Z,-5.67
2022-12-13T02:38:58.524Z,-5.66
2022-12-13T02:41:37.276Z,-5.70
2022-12-13T02:44:21.890Z,-5.72
2022-12-13T02:46:59.111Z,-6.00
2022-12-13T02:49:51.707Z,-6.15
2022-12-13T02:52:26.260Z,-6.02
2022-12-13T02:54:56.611Z,-5.98
2022-12-13T02:57:32.791Z,-5.90
2022-12-13T03:00:07.086Z,-5.83
2022-12-13T03:02:56.930Z,-5.96
2022-12-13T03:05:53.133Z,-5.98
2022-12-13T03:08:26.534Z,-6.08
2022-12-13T03:11:05.665Z,-6.05
2022-12-13T03:13:41.093Z,-5.90
2022-12-13T03:16:33.846Z,-5.83
2022-12-13T03:19:07.124Z,-5.82
2022-12-13T03:21:47.015Z,-5.78
2022-12-13T03:24:18.291Z,-5.70
2022-12-13T03:26:48.373Z,-5.69
2022-12-13T03:29:23.974Z,-5.83
2022-12-13T03:31:53.843Z,-5.78
2022-12-13T03:34:23.946Z,-5.82
2022-12-13T03:36:53.078Z,-5.82
2022-12-13T03:39:23.001Z,-5.87
2022-12-13T03:41:52.886Z,-5.90
2022-12-13T03:44:21.612Z,-5.91
2022-12-13T03:46:50.398Z,-6.08
2022-12-13T03:49:18.953Z,-6.12
2022-12-13T03:51:48.817Z,-6.12
2022-12-13T03:54:18.700Z,-6.07
2022-12-13T03:56:47.048Z,-6.08
2022-12-13T03:59:15.356Z,-6.11
2022-12-13T04:01:43.969Z,-6.07
2022-12-13T04:04:12.308Z,-6.05
2022-12-13T04:06:40.644Z,-6.01
2022-12-13T04:09:10.289Z,-6.03
2022-12-13T04:11:56.351Z,-6.06
2022-12-13T04:14:25.192Z,-6.13
2022-12-13T04:16:53.641Z,-6.16
2022-12-13T04:19:24.183Z,-6.21
2022-12-13T04:21:54.526Z,-6.14
2022-12-13T04:24:30.839Z,-6.18
2022-12-13T04:27:01.269Z,-6.17
2022-12-13T04:29:34.547Z,-6.16
2022-12-13T04:32:04.884Z,-6.22
2022-12-13T04:34:37.468Z,-6.29
2022-12-13T04:37:06.619Z,-6.32
2022-12-13T04:39:36.847Z,-6.29
2022-12-13T04:42:06.147Z,-6.32
2022-12-13T04:44:37.097Z,-6.20
2022-12-13T04:47:06.416Z,-6.29
2022-12-13T04:49:35.667Z,-6.42
2022-12-13T04:52:04.051Z,-6.37
2022-12-13T04:54:35.763Z,-6.46
2022-12-13T04:57:08.436Z,-6.49
2022-12-13T04:59:37.645Z,-6.43
2022-12-13T05:02:07.069Z,-6.42
2022-12-13T05:04:35.631Z,-6.37
2022-12-13T05:07:04.929Z,-6.42
2022-12-13T05:09:33.740Z,-6.37
2022-12-13T05:12:02.324Z,-6.27
2022-12-13T05:14:33.299Z,-6.22
2022-12-13T05:17:02.329Z,-6.11
2022-12-13T05:19:31.826Z,-6.04
2022-12-13T05:22:01.857Z,-6.00
2022-12-13T05:24:31.881Z,-5.99
2022-12-13T05:27:00.617Z,-5.85
2022-12-13T05:29:29.167Z,-5.82
2022-12-13T05:31:59.002Z,-5.85
2022-12-13T05:34:28.040Z,-5.77
2022-12-13T05:36:56.527Z,-5.75
2022-12-13T05:39:28.777Z,-5.73
2022-12-13T05:42:01.411Z,-5.79
2022-12-13T05:44:32.833Z,-5.87
2022-12-13T05:47:03.104Z,-5.87
2022-12-13T05:49:32.458Z,-5.74
2022-12-13T05:52:02.314Z,-5.76
2022-12-13T05:54:30.777Z,-5.72
2022-12-13T05:56:59.300Z,-5.70
2022-12-13T05:59:28.029Z,-5.73
2022-12-13T06:01:56.437Z,-5.60
2022-12-13T06:04:26.470Z,-5.57
2022-12-13T06:06:55.158Z,-5.49
2022-12-13T06:09:23.594Z,-5.39
2022-12-13T06:11:52.625Z,-5.55
2022-12-13T06:14:30.155Z,-5.57
2022-12-13T06:16:58.781Z,-5.53
2022-12-13T06:19:29.974Z,-5.53
2022-12-13T06:21:58.513Z,-5.49
2022-12-13T06:24:27.471Z,-5.41
2022-12-13T06:26:55.932Z,-5.38
2022-12-13T06:29:25.869Z,-5.33
2022-12-13T06:32:01.142Z,-5.44
2022-12-13T06:34:35.510Z,-5.40
2022-12-13T06:37:06.959Z,-5.30
2022-12-13T06:39:36.133Z,-5.27
2022-12-13T06:42:07.251Z,-5.30
2022-12-13T06:44:37.263Z,-5.28
2022-12-13T06:47:11.260Z,-5.21
2022-12-13T06:49:44.566Z,-5.20
2022-12-13T06:52:15.276Z,-5.14
2022-12-13T06:54:44.174Z,-5.15
2022-12-13T06:57:14.956Z,-5.18
2022-12-13T06:59:43.621Z,-5.17
2022-12-13T07:02:15.361Z,-5.15
2022-12-13T07:04:57.369Z,-5.14
2022-12-13T07:07:27.208Z,-5.04
2022-12-13T07:09:55.566Z,-5.09
2022-12-13T07:12:24.597Z,-5.09
2022-12-13T07:14:54.973Z,-5.10
2022-12-13T07:17:33.037Z,-5.17
2022-12-13T07:20:07.789Z,-5.10
2022-12-13T07:22:44.962Z,-5.07
2022-12-13T07:25:27.898Z,-5.11
2022-12-13T07:28:01.772Z,-5.18
2022-12-13T07:30:31.812Z,-5.08
2022-12-13T07:33:01.847Z,-5.19
2022-12-13T07:35:32.359Z,-5.17
2022-12-13T07:38:07.382Z,-5.21
2022-12-13T07:40:36.505Z,-5.20
2022-12-13T07:43:05.947Z,-5.18
2022-12-13T07:45:34.817Z,-5.19
2022-12-13T07:48:07.107Z,-5.13
2022-12-13T07:50:37.889Z,-5.17
2022-12-13T07:53:08.553Z,-5.11
2022-12-13T07:55:38.286Z,-5.19
2022-12-13T07:58:08.448Z,-5.22
2022-12-13T08:00:37.607Z,-5.31
2022-12-13T08:03:07.213Z,-5.37
2022-12-13T08:05:39.417Z,-5.28
2022-12-13T08:08:11.918Z,-5.30
2022-12-13T08:10:40.390Z,-5.27
2022-12-13T08:13:08.925Z,-5.30
2022-12-13T08:15:37.474Z,-5.26
2022-12-13T08:18:06.433Z,-5.22
2022-12-13T08:20:35.031Z,-5.18
2022-12-13T08:23:05.027Z,-5.10
2022-12-13T08:25:33.383Z,-5.15
2022-12-13T08:28:02.888Z,-5.10
2022-12-13T08:30:35.774Z,-5.10
2022-12-13T08:33:05.494Z,-5.02
2022-12-13T08:35:35.691Z,-5.10
2022-12-13T08:38:05.914Z,-5.06
2022-12-13T08:40:35.273Z,-5.07
2022-12-13T08:43:04.120Z,-4.95
2022-12-13T08:45:34.455Z,-4.86
2022-12-13T08:48:03.849Z,-4.80
2022-12-13T08:50:33.168Z,-4.76
2022-12-13T08:53:01.502Z,-4.62
2022-12-13T08:55:32.616Z,-4.72
2022-12-13T08:58:08.721Z,-4.65
2022-12-13T09:00:39.057Z,-4.66
2022-12-13T09:03:09.892Z,-4.57
2022-12-13T09:05:39.360Z,-4.63
2022-12-13T09:08:24.494Z,-4.69
2022-12-13T09:11:10.614Z,-4.69
2022-12-13T09:13:44.035Z,-4.65
2022-12-13T09:16:23.144Z,-4.60
2022-12-13T09:18:55.532Z,-4.54
2022-12-13T09:21:31.252Z,-4.65
2022-12-13T09:24:02.538Z,-4.54
2022-12-13T09:26:38.267Z,-4.42
2022-12-13T09:29:10.908Z,-4.38
2022-12-13T09:31:40.962Z,-4.27
2022-12-13T09:34:10.231Z,-4.27
2022-12-13T09:36:38.673Z,-4.16
2022-12-13T09:39:07.149Z,-4.22
2022-12-13T09:41:41.634Z,-4.18
2022-12-13T09:44:32.115Z,-4.08
2022-12-13T09:47:13.723Z,-3.85
2022-12-13T09:49:53.138Z,-3.97
2022-12-13T09:52:26.635Z,-3.88
2022-12-13T09:55:04.418Z,-3.80
2022-12-13T09:57:38.403Z,-3.81
2022-12-13T10:00:11.176Z,-3.85
2022-12-13T10:02:46.192Z,-3.75
2022-12-13T10:05:34.210Z,-3.87
2022-12-13T10:08:10.346Z,-3.79
2022-12-13T10:10:39.108Z,-3.73
2022-12-13T10:13:19.155Z,-3.60
2022-12-13T10:15:52.976Z,-3.56
2022-12-13T10:18:34.161Z,-3.37
2022-12-13T10:21:04.949Z,-3.23
2022-12-13T10:23:59.419Z,-3.30
2022-12-13T10:26:24.467Z,-3.41
2022-12-13T10:29:04.448Z,-3.35
2022-12-13T10:31:42.445Z,-3.31
2022-12-13T10:34:23.423Z,-3.25
2022-12-13T10:36:52.687Z,-3.24
2022-12-13T10:39:40.137Z,-3.13
2022-12-13T10:42:22.486Z,-3.31
2022-12-13T10:45:15.102Z,-3.17
2022-12-13T10:47:45.377Z,-3.08
2022-12-13T10:50:27.262Z,-3.04
2022-12-13T10:52:57.455Z,-3.00
2022-12-13T10:55:30.519Z,-3.07
2022-12-13T10:58:03.224Z,-2.99
2022-12-13T11:00:41.327Z,-2.91
2022-12-13T11:03:16.093Z,-2.79
2022-12-13T11:05:46.895Z,-2.55
2022-12-13T11:08:22.328Z,-2.64
2022-12-13T11:11:00.813Z,-2.53
2022-12-13T11:13:39.494Z,-2.51
2022-12-13T11:16:32.517Z,-2.54
2022-12-13T11:19:03.323Z,-2.39
2022-12-13T11:21:36.963Z,-2.42
2022-12-13T11:24:09.799Z,-2.28
2022-12-13T11:26:42.796Z,-2.29
2022-12-13T11:29:47.001Z,-2.12
2022-12-13T11:32:23.186Z,-2.09
2022-12-13T11:35:02.897Z,-2.21
2022-12-13T11:37:42.135Z,-2.12
2022-12-13T11:40:16.727Z,-2.01
2022-12-13T11:42:51.122Z,-1.88
2022-12-13T11:45:26.003Z,-2.00
2022-12-13T11:48:06.480Z,-2.07
2022-12-13T11:50:39.406Z,-2.04
2022-12-13T11:53:29.794Z,-2.01
2022-12-13T11:56:09.331Z,-1.87
2022-12-13T11:59:10.124Z,-1.87
2022-12-13T12:01:44.991Z,-1.80
2022-12-13T12:04:22.167Z,-1.66
2022-12-13T12:06:54.992Z,-1.57
2022-12-13T12:09:29.014Z,-1.67
2022-12-13T12:12:04.280Z,-1.74
2022-12-13T12:14:42.781Z,-1.70
2022-12-13T12:17:16.177Z,-1.68
2022-12-13T12:19:50.541Z,-1.56
2022-12-13T12:22:36.912Z,-1.51
2022-12-13T12:25:29.741Z,-1.63
2022-12-13T12:28:12.090Z,-1.59
2022-12-13T12:30:52.119Z,-1.48
2022-12-13T12:33:32.315Z,-1.49
2022-12-13T12:36:23.027Z,-1.49
2022-12-13T12:39:28.269Z,-1.54
2022-12-13T12:42:18.719Z,-1.47
2022-12-13T12:45:54.654Z,-1.42
2022-12-13T12:48:53.719Z,-1.31
2022-12-13T12:51:24.447Z,-1.46
2022-12-13T12:54:04.475Z,-1.44
2022-12-13T12:56:41.739Z,-1.53
2022-12-13T12:59:23.780Z,-1.51
2022-12-13T13:02:00.594Z,-1.49
2022-12-13T13:04:35.888Z,-1.53
2022-12-13T13:07:22.584Z,-1.47
2022-12-13T13:09:54.935Z,-1.43
2022-12-13T13:12:29.942Z,-1.43
2022-12-13T13:15:00.678Z,-1.44
2022-12-13T13:17:48.763Z,-1.38
2022-12-13T13:20:24.329Z,-1.39
2022-12-13T13:23:25.208Z,-1.45
2022-12-13T13:26:16.271Z,-1.24
2022-12-13T13:28:43.841Z,-1.33
2022-12-13T13:31:13.207Z,-1.32
2022-12-13T13:33:48.830Z,-1.27
2022-12-13T13:36:52.274Z,-1.26
2022-12-13T13:39:55.575Z,-1.22
2022-12-13T13:42:24.629Z,-1.26
2022-12-13T13:45:24.007Z,-1.33
2022-12-13T13:48:20.131Z,-1.28
2022-12-13T13:52:16.714Z,-1.27
2022-12-13T13:55:17.540Z,-1.37
2022-12-13T13:58:37.051Z,-1.33
2022-12-13T14:02:01.578Z,-1.36
2022-12-13T14:05:09.023Z,-1.28
2022-12-13T14:08:30.016Z,-1.28
2022-12-13T14:11:48.825Z,-1.31
2022-12-13T14:15:18.452Z,-1.22
2022-12-13T14:18:47.246Z,-1.35
2022-12-13T14:21:26.974Z,-1.35
2022-12-13T14:24:14.236Z,-1.43
2022-12-13T14:27:08.025Z,-1.35
2022-12-13T14:29:48.798Z,-1.40
2022-12-13T14:32:30.196Z,-1.39
2022-12-13T14:35:24.973Z,-1.39
2022-12-13T14:37:58.865Z,-1.34
2022-12-13T14:40:33.016Z,-1.39
2022-12-13T14:43:03.993Z,-1.44
2022-12-13T14:45:36.556Z,-1.48
2022-12-13T14:48:28.691Z,-1.42
2022-12-13T14:50:58.396Z,-1.45
2022-12-13T14:53:29.670Z,-1.53
2022-12-13T14:56:08.520Z,-1.46
2022-12-13T14:58:39.319Z,-1.52
2022-12-13T15:01:29.100Z,-1.58
2022-12-13T15:04:24.919Z,-1.54
2022-12-13T15:07:03.171Z,-1.55
2022-12-13T15:09:36.155Z,-1.57
2022-12-13T15:12:23.360Z,-1.53
2022-12-13T15:15:01.251Z,-1.64
2022-12-13T15:17:34.000Z,-1.67
2022-12-13T15:20:26.739Z,-1.74
2022-12-13T15:23:05.920Z,-1.80
2022-12-13T15:25:37.415Z,-1.77
2022-12-13T15:28:06.878Z,-1.84
2022-12-13T15:30:37.475Z,-1.80
2022-12-13T15:33:09.009Z,-1.86
2022-12-13T15:35:40.508Z,-1.91
2022-12-13T15:38:14.371Z,-1.94
2022-12-13T15:40:57.308Z,-1.98
2022-12-13T15:43:35.903Z,-1.95
2022-12-13T15:46:07.970Z,-2.03
2022-12-13T15:48:48.309Z,-2.00
2022-12-13T15:51:29.119Z,-2.05
2022-12-13T15:54:18.691Z,-2.13
2022-12-13T15:57:04.620Z,-2.08
2022-12-13T15:59:37.773Z,-2.10
2022-12-13T16:02:19.595Z,-2.07
2022-12-13T16:04:50.057Z,-2.17
2022-12-13T16:07:26.027Z,-2.13
2022-12-13T16:09:57.027Z,-2.15
2022-12-13T16:12:30.605Z,-2.16
2022-12-13T16:15:28.491Z,-2.18
2022-12-13T16:18:13.908Z,-2.12
2022-12-13T16:20:43.951Z,-2.19
2022-12-13T16:23:26.808Z,-2.10
2022-12-13T16:25:56.343Z,-2.16
2022-12-13T16:28:26.201Z,-2.18
2022-12-13T16:31:11.622Z,-2.18
2022-12-13T16:33:41.296Z,-2.27
2022-12-13T16:36:10.937Z,-2.28
2022-12-13T16:38:39.608Z,-2.29
2022-12-13T16:41:09.772Z,-2.33
2022-12-13T16:43:46.183Z,-2.33
2022-12-13T16:47:16.198Z,-2.34
2022-12-13T16:49:19.065Z,-2.32
2022-12-13T16:51:48.753Z,-2.28
2022-12-13T16:54:18.677Z,-2.25
2022-12-13T16:56:48.952Z,-2.28
2022-12-13T16:59:19.514Z,-2.16
2022-12-13T17:01:48.850Z,-2.19
2022-12-13T17:04:21.627Z,-2.16
2022-12-13T17:06:51.054Z,-2.18
2022-12-13T17:09:25.025Z,-2.15
2022-12-13T17:11:53.675Z,-2.24
2022-12-13T17:14:21.975Z,-2.31
2022-12-13T17:16:51.269Z,-2.24
2022-12-13T17:19:20.925Z,-2.33
2022-12-13T17:21:49.651Z,-2.38
2022-12-13T17:24:17.811Z,-2.32
2022-12-13T17:26:54.785Z,-2.31
2022-12-13T17:29:25.196Z,-2.32
2022-12-13T17:31:54.410Z,-2.33
2022-12-13T17:34:24.430Z,-2.30
2022-12-13T17:36:55.378Z,-2.37
2022-12-13T17:39:25.440Z,-2.39
2022-12-13T17:41:55.106Z,-2.36
2022-12-13T17:44:25.236Z,-2.35
2022-12-13T17:46:55.042Z,-2.30
2022-12-13T17:49:26.086Z,-2.32
2022-12-13T17:51:55.196Z,-2.33
2022-12-13T17:54:25.160Z,-2.35
2022-12-13T17:56:54.388Z,-2.35
2022-12-13T17:59:24.575Z,-2.30
2022-12-13T18:01:53.592Z,-2.42
2022-12-13T18:04:23.198Z,-2.35
2022-12-13T18:06:53.190Z,-2.30
2022-12-13T18:09:21.538Z,-2.31
2022-12-13T18:11:52.044Z,-2.31
2022-12-13T18:14:21.655Z,-2.30
2022-12-13T18:16:50.172Z,-2.40
2022-12-13T18:19:19.099Z,-2.50
2022-12-13T18:21:48.244Z,-2.48
2022-12-13T18:24:18.224Z,-2.50
2022-12-13T18:26:46.609Z,-2.51
2022-12-13T18:29:15.144Z,-2.53
2022-12-13T18:31:44.494Z,-2.56
2022-12-13T18:34:13.337Z,-2.52
2022-12-13T18:36:41.689Z,-2.54
2022-12-13T18:39:10.311Z,-2.55
2022-12-13T18:41:40.273Z,-2.54
2022-12-13T18:44:13.446Z,-2.53
2022-12-13T18:46:45.883Z,-2.48
2022-12-13T18:49:14.806Z,-2.50
2022-12-13T18:51:43.371Z,-2.47
2022-12-13T18:54:12.454Z,-2.48
2022-12-13T18:56:42.491Z,-2.52
2022-12-13T18:59:12.514Z,-2.59
2022-12-13T19:01:41.902Z,-2.52
2022-12-13T19:04:10.294Z,-2.57
2022-12-13T19:06:38.617Z,-2.59
2022-12-13T19:09:07.039Z,-2.58
2022-12-13T19:11:37.067Z,-2.61
2022-12-13T19:14:07.002Z,-2.66
2022-12-13T19:16:35.823Z,-2.65
2022-12-13T19:19:04.159Z,-2.69
2022-12-13T19:21:32.455Z,-2.71
2022-12-13T19:24:01.392Z,-2.72
2022-12-13T19:26:30.715Z,-2.68
2022-12-13T19:29:00.583Z,-2.72
2022-12-13T19:31:32.523Z,-2.72
2022-12-13T19:34:02.540Z,-2.67
2022-12-13T19:36:32.243Z,-2.66
2022-12-13T19:39:00.964Z,-2.67
2022-12-13T19:41:32.043Z,-2.64
2022-12-13T19:44:04.683Z,-2.77
2022-12-13T19:46:36.771Z,-2.77
2022-12-13T19:49:05.357Z,-2.71
2022-12-13T19:51:39.304Z,-2.69
2022-12-13T19:54:08.386Z,-2.69
2022-12-13T19:56:36.689Z,-2.68
2022-12-13T19:59:05.097Z,-2.62
2022-12-13T20:01:34.846Z,-2.73
2022-12-13T20:04:03.971Z,-2.82
2022-12-13T20:06:32.352Z,-2.81
2022-12-13T20:09:01.352Z,-2.83
2022-12-13T20:11:29.934Z,-2.87
2022-12-13T20:13:58.218Z,-2.91
2022-12-13T20:16:28.179Z,-2.89
2022-12-13T20:18:59.861Z,-2.94
2022-12-13T20:21:29.929Z,-3.00
2022-12-13T20:23:58.858Z,-3.07
2022-12-13T20:26:29.859Z,-3.07
2022-12-13T20:28:58.487Z,-3.12
2022-12-13T20:31:29.494Z,-3.09
2022-12-13T20:34:02.363Z,-3.12
2022-12-13T20:36:32.995Z,-3.23
2022-12-13T20:39:03.493Z,-3.24
2022-12-13T20:41:34.159Z,-3.24
2022-12-13T20:44:04.545Z,-3.27
2022-12-13T20:46:33.422Z,-3.31
2022-12-13T20:49:07.005Z,-3.35
2022-12-13T20:51:37.428Z,-3.29
2022-12-13T20:54:06.175Z,-3.26
2022-12-13T20:56:37.121Z,-3.23
2022-12-13T20:59:07.728Z,-3.27
2022-12-13T21:01:39.153Z,-3.33
2022-12-13T21:04:12.033Z,-3.33
2022-12-13T21:06:42.903Z,-3.33
2022-12-13T21:09:12.854Z,-3.33
2022-12-13T21:11:47.593Z,-3.36
2022-12-13T21:14:22.306Z,-3.35
2022-12-13T21:16:53.812Z,-3.35
2022-12-13T21:19:26.805Z,-3.31
2022-12-13T21:21:57.001Z,-3.32
2022-12-13T21:24:28.014Z,-3.26
2022-12-13T21:26:57.047Z,-3.32
2022-12-13T21:29:25.479Z,-3.35
2022-12-13T21:31:54.942Z,-3.37
2022-12-13T21:34:25.278Z,-3.36
2022-12-13T21:36:53.837Z,-3.38
2022-12-13T21:39:28.023Z,-3.42
2022-12-13T21:41:57.405Z,-3.40
2022-12-13T21:44:25.834Z,-3.48
2022-12-13T21:47:11.989Z,-3.49
2022-12-13T21:49:42.491Z,-3.42
2022-12-13T21:52:18.071Z,-3.39
2022-12-13T21:54:46.497Z,-3.42
2022-12-13T21:57:32.375Z,-3.40
2022-12-13T22:00:01.162Z,-3.42
2022-12-13T22:02:29.564Z,-3.46
2022-12-13T22:05:00.039Z,-3.44
2022-12-13T22:07:30.428Z,-3.44
2022-12-13T22:10:00.896Z,-3.43
2022-12-13T22:12:34.805Z,-3.52
2022-12-13T22:15:04.523Z,-3.49
2022-12-13T22:17:35.966Z,-3.51
2022-12-13T22:20:09.767Z,-3.53
2022-12-13T22:22:41.560Z,-3.55
2022-12-13T22:25:11.154Z,-3.53
2022-12-13T22:27:39.711Z,-3.54
2022-12-13T22:30:10.341Z,-3.52
2022-12-13T22:32:38.791Z,-3.51
2022-12-13T22:35:11.741Z,-3.52
2022-12-13T22:37:40.412Z,-3.56
2022-12-13T22:40:10.674Z,-3.59
2022-12-13T22:42:39.336Z,-3.53
2022-12-13T22:45:09.453Z,-3.51
2022-12-13T22:47:37.790Z,-3.49
2022-12-13T22:50:09.281Z,-3.58
2022-12-13T22:52:37.958Z,-3.53
2022-12-13T22:55:08.024Z,-3.56
2022-12-13T22:57:36.523Z,-3.51
2022-12-13T23:00:10.082Z,-3.51
2022-12-13T23:02:39.825Z,-3.53
2022-12-13T23:05:10.766Z,-3.50
2022-12-13T23:07:39.192Z,-3.46
2022-12-13T23:10:28.279Z,-3.45
2022-12-13T23:13:01.574Z,-3.47
2022-12-13T23:15:30.251Z,-3.43
2022-12-13T23:17:59.291Z,-3.41
2022-12-13T23:20:29.064Z,-3.46
2022-12-13T23:22:57.376Z,-3.44
2022-12-13T23:25:25.783Z,-3.44
2022-12-13T23:27:54.090Z,-3.46
2022-12-13T23:30:22.487Z,-3.51
2022-12-13T23:32:50.706Z,-3.49
2022-12-13T23:35:19.008Z,-3.48
2022-12-13T23:37:48.620Z,-3.56
2022-12-13T23:40:17.441Z,-3.63
2022-12-13T23:42:45.663Z,-3.57
2022-12-13T23:45:13.901Z,-3.60
2022-12-13T23:47:42.823Z,-3.53
2022-12-13T23:50:11.855Z,-3.64
2022-12-13T23:52:40.660Z,-3.57
2022-12-13T23:55:11.700Z,-3.56
2022-12-13T23:57:39.971Z,-3.63
